sensor_id;sensor_type;location;lat;lon;timestamp;temperature;humidity
20147;DHT22;10234;50.856;15.716;2023-05-07T00:07:40;7.50;99.90
20147;DHT22;10234;50.856;15.716;2023-05-07T00:10:07;7.50;99.90
20147;DHT22;10234;50.856;15.716;2023-05-07T00:27:22;7.50;99.90
20147;DHT22;10234;50.856;15.716;2023-05-07T00:29:49;7.50;99.90
20147;DHT22;10234;50.856;15.716;2023-05-07T00:32:18;7.50;99.90
20147;DHT22;10234;50.856;15.716;2023-05-07T00:37:12;7.30;99.90
20147;DHT22;10234;50.856;15.716;2023-05-07T00:42:07;7.40;99.90
20147;DHT22;10234;50.856;15.716;2023-05-07T00:44:34;7.40;99.90
20147;DHT22;10234;50.856;15.716;2023-05-07T00:47:06;7.40;99.90
20147;DHT22;10234;50.856;15.716;2023-05-07T00:49:38;7.30;99.90
20147;DHT22;10234;50.856;15.716;2023-05-07T00:52:09;7.40;99.90
20147;DHT22;10234;50.856;15.716;2023-05-07T00:54:37;7.40;99.90
20147;DHT22;10234;50.856;15.716;2023-05-07T00:59:36;7.50;99.90
20147;DHT22;10234;50.856;15.716;2023-05-07T01:06:58;7.30;99.90
20147;DHT22;10234;50.856;15.716;2023-05-07T01:09:26;7.40;99.90
20147;DHT22;10234;50.856;15.716;2023-05-07T01:11:55;7.40;99.90
20147;DHT22;10234;50.856;15.716;2023-05-07T01:16:51;7.50;99.90
20147;DHT22;10234;50.856;15.716;2023-05-07T01:19:19;7.30;99.90
20147;DHT22;10234;50.856;15.716;2023-05-07T01:21:47;7.40;99.90
20147;DHT22;10234;50.856;15.716;2023-05-07T01:24:18;7.30;99.90
20147;DHT22;10234;50.856;15.716;2023-05-07T01:26:45;7.30;99.90
20147;DHT22;10234;50.856;15.716;2023-05-07T01:31:39;7.30;99.90
20147;DHT22;10234;50.856;15.716;2023-05-07T01:34:12;7.20;99.90
20147;DHT22;10234;50.856;15.716;2023-05-07T01:36:40;7.20;99.90
20147;DHT22;10234;50.856;15.716;2023-05-07T01:39:09;7.50;99.90
20147;DHT22;10234;50.856;15.716;2023-05-07T01:41:38;6.90;99.90
20147;DHT22;10234;50.856;15.716;2023-05-07T01:44:05;7.10;99.90
20147;DHT22;10234;50.856;15.716;2023-05-07T01:51:32;7.10;99.90
20147;DHT22;10234;50.856;15.716;2023-05-07T01:58:55;6.70;99.90
20147;DHT22;10234;50.856;15.716;2023-05-07T02:01:22;7.30;99.90
20147;DHT22;10234;50.856;15.716;2023-05-07T02:03:49;7.20;99.90
20147;DHT22;10234;50.856;15.716;2023-05-07T02:08:43;7.10;99.90
20147;DHT22;10234;50.856;15.716;2023-05-07T02:16:06;7.10;99.90
20147;DHT22;10234;50.856;15.716;2023-05-07T02:18:33;7.80;99.90
20147;DHT22;10234;50.856;15.716;2023-05-07T02:21:01;7.10;99.90
20147;DHT22;10234;50.856;15.716;2023-05-07T02:33:17;7.20;99.90
20147;DHT22;10234;50.856;15.716;2023-05-07T02:35:44;7.20;99.90
20147;DHT22;10234;50.856;15.716;2023-05-07T02:38:11;6.80;99.90
20147;DHT22;10234;50.856;15.716;2023-05-07T02:48:00;7.30;99.90
20147;DHT22;10234;50.856;15.716;2023-05-07T02:50:28;7.00;99.90
20147;DHT22;10234;50.856;15.716;2023-05-07T03:00:18;7.00;99.90
20147;DHT22;10234;50.856;15.716;2023-05-07T03:02:47;7.10;99.90
20147;DHT22;10234;50.856;15.716;2023-05-07T03:05:14;7.10;99.90
20147;DHT22;10234;50.856;15.716;2023-05-07T03:10:14;7.00;99.90
20147;DHT22;10234;50.856;15.716;2023-05-07T03:12:41;7.40;99.90
20147;DHT22;10234;50.856;15.716;2023-05-07T03:15:09;8.50;99.90
20147;DHT22;10234;50.856;15.716;2023-05-07T03:25:01;7.00;99.90
20147;DHT22;10234;50.856;15.716;2023-05-07T03:29:58;6.90;99.90
20147;DHT22;10234;50.856;15.716;2023-05-07T03:34:52;6.80;99.90
20147;DHT22;10234;50.856;15.716;2023-05-07T03:37:19;6.60;99.90
20147;DHT22;10234;50.856;15.716;2023-05-07T03:39:47;6.80;99.90
20147;DHT22;10234;50.856;15.716;2023-05-07T03:47:12;6.30;99.90
20147;DHT22;10234;50.856;15.716;2023-05-07T03:52:07;6.70;99.90
20147;DHT22;10234;50.856;15.716;2023-05-07T03:57:01;6.90;99.90
20147;DHT22;10234;50.856;15.716;2023-05-07T03:59:31;6.90;99.90
20147;DHT22;10234;50.856;15.716;2023-05-07T04:04:25;6.80;99.90
20147;DHT22;10234;50.856;15.716;2023-05-07T04:11:47;6.80;99.90
20147;DHT22;10234;50.856;15.716;2023-05-07T04:14:14;6.90;99.90
20147;DHT22;10234;50.856;15.716;2023-05-07T04:19:12;6.90;99.90
20147;DHT22;10234;50.856;15.716;2023-05-07T04:26:33;6.90;99.90
20147;DHT22;10234;50.856;15.716;2023-05-07T04:36:25;7.00;99.90
20147;DHT22;10234;50.856;15.716;2023-05-07T04:43:47;6.80;99.90
20147;DHT22;10234;50.856;15.716;2023-05-07T04:53:37;6.90;99.90
20147;DHT22;10234;50.856;15.716;2023-05-07T04:56:04;7.00;99.90
20147;DHT22;10234;50.856;15.716;2023-05-07T05:00:59;7.10;99.90
20147;DHT22;10234;50.856;15.716;2023-05-07T05:08:26;7.10;99.90
20147;DHT22;10234;50.856;15.716;2023-05-07T05:10:53;7.10;99.90
20147;DHT22;10234;50.856;15.716;2023-05-07T05:18:14;7.30;99.90
20147;DHT22;10234;50.856;15.716;2023-05-07T05:20:41;7.10;99.90
20147;DHT22;10234;50.856;15.716;2023-05-07T05:23:08;7.10;99.90
20147;DHT22;10234;50.856;15.716;2023-05-07T05:25:36;7.20;99.90
20147;DHT22;10234;50.856;15.716;2023-05-07T05:37:53;7.10;99.90
20147;DHT22;10234;50.856;15.716;2023-05-07T05:40:20;7.10;99.90
20147;DHT22;10234;50.856;15.716;2023-05-07T05:55:05;7.30;99.90
20147;DHT22;10234;50.856;15.716;2023-05-07T06:00:00;7.20;99.90
20147;DHT22;10234;50.856;15.716;2023-05-07T06:07:22;7.20;99.90
20147;DHT22;10234;50.856;15.716;2023-05-07T06:14:43;7.20;99.90
20147;DHT22;10234;50.856;15.716;2023-05-07T06:31:57;7.50;99.90
20147;DHT22;10234;50.856;15.716;2023-05-07T06:44:28;7.50;99.90
20147;DHT22;10234;50.856;15.716;2023-05-07T06:59:12;8.00;99.90
20147;DHT22;10234;50.856;15.716;2023-05-07T07:26:14;8.30;99.90
20147;DHT22;10234;50.856;15.716;2023-05-07T07:28:44;8.00;99.90
20147;DHT22;10234;50.856;15.716;2023-05-07T07:41:00;8.40;99.90
20147;DHT22;10234;50.856;15.716;2023-05-07T07:48:30;12.00;99.90
20147;DHT22;10234;50.856;15.716;2023-05-07T07:55:51;12.60;99.90
20147;DHT22;10234;50.856;15.716;2023-05-07T08:00:47;11.00;99.90
20147;DHT22;10234;50.856;15.716;2023-05-07T08:18:02;10.00;99.90
20147;DHT22;10234;50.856;15.716;2023-05-07T08:25:23;9.70;99.90
20147;DHT22;10234;50.856;15.716;2023-05-07T08:35:12;9.20;99.90
20147;DHT22;10234;50.856;15.716;2023-05-07T08:37:40;9.10;99.90
20147;DHT22;10234;50.856;15.716;2023-05-07T08:40:07;9.10;99.90
20147;DHT22;10234;50.856;15.716;2023-05-07T08:42:36;9.10;99.90
20147;DHT22;10234;50.856;15.716;2023-05-07T08:45:04;9.00;99.90
20147;DHT22;10234;50.856;15.716;2023-05-07T08:47:43;9.00;99.90
20147;DHT22;10234;50.856;15.716;2023-05-07T08:52:40;8.90;99.90
20147;DHT22;10234;50.856;15.716;2023-05-07T08:55:08;8.90;99.90
20147;DHT22;10234;50.856;15.716;2023-05-07T09:00:03;8.10;99.90
20147;DHT22;10234;50.856;15.716;2023-05-07T09:04:57;8.70;99.90
20147;DHT22;10234;50.856;15.716;2023-05-07T09:07:24;8.90;99.90
20147;DHT22;10234;50.856;15.716;2023-05-07T09:09:53;9.00;99.90
20147;DHT22;10234;50.856;15.716;2023-05-07T09:12:21;9.20;99.90
20147;DHT22;10234;50.856;15.716;2023-05-07T09:17:15;9.80;99.90
20147;DHT22;10234;50.856;15.716;2023-05-07T09:19:43;9.90;99.90
20147;DHT22;10234;50.856;15.716;2023-05-07T09:24:37;9.80;99.90
20147;DHT22;10234;50.856;15.716;2023-05-07T09:27:06;9.80;99.90
20147;DHT22;10234;50.856;15.716;2023-05-07T09:32:04;9.70;99.90
20147;DHT22;10234;50.856;15.716;2023-05-07T09:39:26;10.00;99.90
20147;DHT22;10234;50.856;15.716;2023-05-07T09:46:53;9.80;99.90
20147;DHT22;10234;50.856;15.716;2023-05-07T09:49:22;9.80;99.90
20147;DHT22;10234;50.856;15.716;2023-05-07T09:51:50;9.80;99.90
20147;DHT22;10234;50.856;15.716;2023-05-07T09:54:17;9.80;99.90
20147;DHT22;10234;50.856;15.716;2023-05-07T09:56:45;9.60;99.90
20147;DHT22;10234;50.856;15.716;2023-05-07T09:59:14;9.60;99.90
20147;DHT22;10234;50.856;15.716;2023-05-07T10:01:43;9.30;99.90
20147;DHT22;10234;50.856;15.716;2023-05-07T10:06:38;9.10;99.90
20147;DHT22;10234;50.856;15.716;2023-05-07T10:18:57;8.50;99.90
20147;DHT22;10234;50.856;15.716;2023-05-07T10:21:27;8.60;99.90
20147;DHT22;10234;50.856;15.716;2023-05-07T10:23:58;8.60;99.90
20147;DHT22;10234;50.856;15.716;2023-05-07T10:26:27;8.70;99.90
20147;DHT22;10234;50.856;15.716;2023-05-07T10:28:58;8.80;99.90
20147;DHT22;10234;50.856;15.716;2023-05-07T10:31:38;9.00;99.90
20147;DHT22;10234;50.856;15.716;2023-05-07T10:34:12;9.00;99.90
20147;DHT22;10234;50.856;15.716;2023-05-07T10:46:29;9.00;99.90
20147;DHT22;10234;50.856;15.716;2023-05-07T10:49:11;8.70;99.90
20147;DHT22;10234;50.856;15.716;2023-05-07T10:51:39;9.10;99.90
20147;DHT22;10234;50.856;15.716;2023-05-07T10:54:19;9.30;99.90
20147;DHT22;10234;50.856;15.716;2023-05-07T10:59:35;9.70;99.90
20147;DHT22;10234;50.856;15.716;2023-05-07T11:07:30;9.70;99.90
20147;DHT22;10234;50.856;15.716;2023-05-07T11:10:04;9.40;99.90
20147;DHT22;10234;50.856;15.716;2023-05-07T11:12:47;9.40;99.90
20147;DHT22;10234;50.856;15.716;2023-05-07T11:17:53;9.00;99.90
20147;DHT22;10234;50.856;15.716;2023-05-07T11:20:48;9.00;99.90
20147;DHT22;10234;50.856;15.716;2023-05-07T11:26:48;8.70;99.90
20147;DHT22;10234;50.856;15.716;2023-05-07T11:29:16;8.70;99.90
20147;DHT22;10234;50.856;15.716;2023-05-07T11:34:11;8.70;99.90
20147;DHT22;10234;50.856;15.716;2023-05-07T11:36:43;8.50;99.90
20147;DHT22;10234;50.856;15.716;2023-05-07T11:39:27;9.10;99.90
20147;DHT22;10234;50.856;15.716;2023-05-07T11:41:54;8.70;99.90
20147;DHT22;10234;50.856;15.716;2023-05-07T11:46:49;8.90;99.90
20147;DHT22;10234;50.856;15.716;2023-05-07T11:51:44;8.90;99.90
20147;DHT22;10234;50.856;15.716;2023-05-07T11:54:16;8.80;99.90
20147;DHT22;10234;50.856;15.716;2023-05-07T11:56:44;8.90;99.90
20147;DHT22;10234;50.856;15.716;2023-05-07T12:06:36;9.50;99.90
20147;DHT22;10234;50.856;15.716;2023-05-07T12:19:00;9.10;99.90
20147;DHT22;10234;50.856;15.716;2023-05-07T12:23:54;8.90;99.90
20147;DHT22;10234;50.856;15.716;2023-05-07T12:36:14;8.50;99.90
20147;DHT22;10234;50.856;15.716;2023-05-07T12:41:09;8.30;99.90
20147;DHT22;10234;50.856;15.716;2023-05-07T12:43:39;8.20;99.90
20147;DHT22;10234;50.856;15.716;2023-05-07T12:51:05;7.90;99.90
20147;DHT22;10234;50.856;15.716;2023-05-07T12:58:28;8.20;99.90
20147;DHT22;10234;50.856;15.716;2023-05-07T13:00:58;8.50;99.90
20147;DHT22;10234;50.856;15.716;2023-05-07T13:03:27;8.60;99.90
20147;DHT22;10234;50.856;15.716;2023-05-07T13:05:55;8.70;99.90
20147;DHT22;10234;50.856;15.716;2023-05-07T13:08:27;8.80;99.90
20147;DHT22;10234;50.856;15.716;2023-05-07T13:13:24;8.80;99.90
20147;DHT22;10234;50.856;15.716;2023-05-07T13:18:19;8.70;99.90
20147;DHT22;10234;50.856;15.716;2023-05-07T13:33:02;8.80;99.90
20147;DHT22;10234;50.856;15.716;2023-05-07T13:52:44;8.10;99.90
20147;DHT22;10234;50.856;15.716;2023-05-07T14:00:11;7.10;99.90
20147;DHT22;10234;50.856;15.716;2023-05-07T14:44:28;8.30;99.90
20147;DHT22;10234;50.856;15.716;2023-05-07T15:01:39;8.00;99.90
20147;DHT22;10234;50.856;15.716;2023-05-07T15:16:27;8.00;99.90
20147;DHT22;10234;50.856;15.716;2023-05-07T15:18:55;8.10;99.90
20147;DHT22;10234;50.856;15.716;2023-05-07T15:31:15;8.10;99.90
20147;DHT22;10234;50.856;15.716;2023-05-07T16:10:37;7.80;99.90
20147;DHT22;10234;50.856;15.716;2023-05-07T16:20:27;7.70;99.90
20147;DHT22;10234;50.856;15.716;2023-05-07T16:27:53;7.70;99.90
20147;DHT22;10234;50.856;15.716;2023-05-07T16:37:41;7.60;99.90
20147;DHT22;10234;50.856;15.716;2023-05-07T16:40:08;7.70;99.90
20147;DHT22;10234;50.856;15.716;2023-05-07T16:45:05;7.60;99.90
20147;DHT22;10234;50.856;15.716;2023-05-07T16:54:57;7.50;99.90
20147;DHT22;10234;50.856;15.716;2023-05-07T16:59:55;7.40;99.90
20147;DHT22;10234;50.856;15.716;2023-05-07T17:12:13;6.80;99.90
20147;DHT22;10234;50.856;15.716;2023-05-07T17:34:19;7.10;99.90
20147;DHT22;10234;50.856;15.716;2023-05-07T17:36:47;7.10;99.90
20147;DHT22;10234;50.856;15.716;2023-05-07T17:53:58;7.00;99.90
20147;DHT22;10234;50.856;15.716;2023-05-07T17:56:25;7.00;99.90
20147;DHT22;10234;50.856;15.716;2023-05-07T18:08:44;7.00;99.90
20147;DHT22;10234;50.856;15.716;2023-05-07T18:11:13;6.80;99.90
20147;DHT22;10234;50.856;15.716;2023-05-07T18:16:08;6.90;99.90
20147;DHT22;10234;50.856;15.716;2023-05-07T18:18:35;6.90;99.90
20147;DHT22;10234;50.856;15.716;2023-05-07T18:21:02;7.10;99.90
20147;DHT22;10234;50.856;15.716;2023-05-07T18:28:26;6.90;99.90
20147;DHT22;10234;50.856;15.716;2023-05-07T18:30:53;6.90;99.90
20147;DHT22;10234;50.856;15.716;2023-05-07T18:45:37;6.70;99.90
20147;DHT22;10234;50.856;15.716;2023-05-07T18:48:05;6.90;99.90
20147;DHT22;10234;50.856;15.716;2023-05-07T18:55:26;7.00;99.90
20147;DHT22;10234;50.856;15.716;2023-05-07T18:57:53;7.40;99.90
20147;DHT22;10234;50.856;15.716;2023-05-07T19:00:20;6.80;99.90
20147;DHT22;10234;50.856;15.716;2023-05-07T19:02:48;6.80;99.90
20147;DHT22;10234;50.856;15.716;2023-05-07T19:20:02;6.80;99.90
20147;DHT22;10234;50.856;15.716;2023-05-07T19:22:30;6.90;99.90
20147;DHT22;10234;50.856;15.716;2023-05-07T19:27:24;6.80;99.90
20147;DHT22;10234;50.856;15.716;2023-05-07T19:29:50;6.70;99.90
20147;DHT22;10234;50.856;15.716;2023-05-07T19:52:01;6.70;99.90
20147;DHT22;10234;50.856;15.716;2023-05-07T19:54:29;6.80;99.90
20147;DHT22;10234;50.856;15.716;2023-05-07T20:04:17;6.80;99.90
20147;DHT22;10234;50.856;15.716;2023-05-07T20:11:40;6.70;99.90
20147;DHT22;10234;50.856;15.716;2023-05-07T20:41:09;6.40;99.90
20147;DHT22;10234;50.856;15.716;2023-05-07T20:46:07;6.50;99.90
20147;DHT22;10234;50.856;15.716;2023-05-07T20:51:02;6.50;99.90
20147;DHT22;10234;50.856;15.716;2023-05-07T20:53:30;6.50;99.90
20147;DHT22;10234;50.856;15.716;2023-05-07T20:58:29;6.50;99.90
20147;DHT22;10234;50.856;15.716;2023-05-07T21:03:24;6.70;99.90
20147;DHT22;10234;50.856;15.716;2023-05-07T21:10:46;6.40;99.90
20147;DHT22;10234;50.856;15.716;2023-05-07T21:15:41;6.40;99.90
20147;DHT22;10234;50.856;15.716;2023-05-07T21:20:38;6.30;99.90
20147;DHT22;10234;50.856;15.716;2023-05-07T21:37:49;6.30;99.90
20147;DHT22;10234;50.856;15.716;2023-05-07T21:50:05;6.20;99.90
20147;DHT22;10234;50.856;15.716;2023-05-07T21:52:32;6.30;99.90
20147;DHT22;10234;50.856;15.716;2023-05-07T21:55:03;5.70;99.90
20147;DHT22;10234;50.856;15.716;2023-05-07T21:57:30;6.10;99.90
20147;DHT22;10234;50.856;15.716;2023-05-07T22:12:14;6.10;99.90
20147;DHT22;10234;50.856;15.716;2023-05-07T22:19:35;6.20;99.90
20147;DHT22;10234;50.856;15.716;2023-05-07T22:22:02;6.10;99.90
20147;DHT22;10234;50.856;15.716;2023-05-07T22:24:29;6.00;99.90
20147;DHT22;10234;50.856;15.716;2023-05-07T22:26:56;6.10;99.90
20147;DHT22;10234;50.856;15.716;2023-05-07T22:29:24;6.00;99.90
20147;DHT22;10234;50.856;15.716;2023-05-07T22:31:53;6.10;99.90
20147;DHT22;10234;50.856;15.716;2023-05-07T22:44:08;6.00;99.90
20147;DHT22;10234;50.856;15.716;2023-05-07T22:49:03;6.00;99.90
20147;DHT22;10234;50.856;15.716;2023-05-07T22:53:57;6.10;99.90
20147;DHT22;10234;50.856;15.716;2023-05-07T22:56:24;6.00;99.90
20147;DHT22;10234;50.856;15.716;2023-05-07T22:58:51;5.90;99.90
20147;DHT22;10234;50.856;15.716;2023-05-07T23:01:21;5.80;99.90
20147;DHT22;10234;50.856;15.716;2023-05-07T23:03:49;5.80;99.90
20147;DHT22;10234;50.856;15.716;2023-05-07T23:16:05;5.70;99.90
20147;DHT22;10234;50.856;15.716;2023-05-07T23:21:00;5.90;99.90
20147;DHT22;10234;50.856;15.716;2023-05-07T23:23:27;5.50;99.90
20147;DHT22;10234;50.856;15.716;2023-05-07T23:38:17;5.30;99.90
20147;DHT22;10234;50.856;15.716;2023-05-07T23:48:05;5.00;99.90
20147;DHT22;10234;50.856;15.716;2023-05-07T23:50:32;5.20;99.90
20147;DHT22;10234;50.856;15.716;2023-05-07T23:52:59;5.00;99.90
20147;DHT22;10234;50.856;15.716;2023-05-07T23:55:27;4.80;99.90
